Terminal Aerodrome Forecast
Issued by NWS Twin Cities, MN

Home | Current Version | Previous Version | Text Only | Print | Product List | Glossary On
Versions: 1 2 3 4 5 6 7 8 9 10 11 12 13 14 15 16 17 18 19 20 21
000
FTUS43 KMPX 281121
TAFSTC
TAF
KSTC 281121Z 2812/2912 14012KT 6SM BR OVC007
     FM281800 16009KT P6SM SCT007 OVC012
     FM282300 14004KT 4SM BR OVC007
     FM290300 32007KT P6SM OVC009
     FM290600 32015G24KT P6SM OVC012=

USA.gov is the U.S. government's official web portal to all federal, state and local government web resources and services.